This is the latest recevied weather packets stored in our database for station/object KB9GXK. If no packets are shown the sender has not sent any weather packets the latest 10 day(s).
| Time | Temp. | Humidity | Pressure | Rain* | Wind** | Luminosity | Snow |
|---|---|---|---|---|---|---|---|
| 1777152843 | 8.33° C | 81% | 1017.3 hPa | 0 mm | - | 323 W/m² | - |
| 1777152539 | 8.33° C | 80% | 1017.4 hPa | 0 mm | - | 343 W/m² | - |
| 1777152236 | 7.78° C | 80% | 1017.4 hPa | 0 mm | - | 361 W/m² | - |
| 1777151930 | 8.89° C | 77% | 1017.4 hPa | 0 mm | - | 373 W/m² | - |
| 1777151627 | 9.44° C | 77% | 1017.3 hPa | 0 mm | - | 400 W/m² | - |
| 1777151324 | 8.89° C | 78% | 1017.1 hPa | 0 mm | - | 416 W/m² | - |
| 1777151019 | 8.33° C | 80% | 1017.4 hPa | 0 mm | - | 439 W/m² | - |
| 1777150718 | 8.33° C | 80% | 1017 hPa | 0 mm | - | 457 W/m² | - |
| 1777150414 | 8.33° C | 80% | 1017 hPa | 0 mm | - | 459 W/m² | - |
| 1777150112 | 7.78° C | 81% | 1017.3 hPa | 0 mm | - | 461 W/m² | - |
| 1777149807 | 7.78° C | 81% | 1017.2 hPa | 0 mm | - | 498 W/m² | - |
| 1777149504 | 8.33° C | 79% | 1017.1 hPa | 0 mm | - | 403 W/m² | - |
| 1777149200 | 8.33° C | 79% | 1017.5 hPa | 0 mm | - | 353 W/m² | - |
| 1777148894 | 7.78° C | 80% | 1017 hPa | 0 mm | - | 491 W/m² | - |
| 1777148592 | 8.33° C | 80% | 1017.3 hPa | 0 mm | - | 421 W/m² | - |
| 1777148287 | 8.33° C | 79% | 1017.3 hPa | 0 mm | - | 573 W/m² | - |
| 1777147984 | 7.78° C | 80% | 1017.2 hPa | 0 mm | - | 313 W/m² | - |
| 1777147680 | 7.78° C | 79% | 1017.1 hPa | 0 mm | - | 604 W/m² | - |
| 1777147376 | 7.78° C | 80% | 1017.2 hPa | 0 mm | - | 488 W/m² | - |
| 1777147071 | 8.33° C | 79% | 1017.3 hPa | 0 mm | - | 577 W/m² | - |
| 1777146767 | 8.33° C | 79% | 1017.4 hPa | 0 mm | - | 586 W/m² | - |
| 1777146463 | 8.33° C | 79% | 1017.4 hPa | 0 mm | - | 603 W/m² | - |
| 1777146160 | 8.89° C | 78% | 1017.1 hPa | 0 mm | - | 612 W/m² | - |
| 1777145855 | 8.89° C | 79% | 1017.2 hPa | 0 mm | - | 629 W/m² | - |
* Rain latest hour (hover to see other rain measurements)
** Current wind speed in m/s (hover to see current wind gust speed)